ETSBCYYR

Guest
Details From ETSB - Buchel
To CYYR - Goose Bay
Flight Number -
Tags Decoded
Created
Modified
Stats Distance 2,707 nm / 5,013 km
Max Altitude 0 ft / 0 m
Waypoints 8
Social Downloads 0
Likes 0
Share VATSIM

Download

Looking for another format? Having issues loading an existing format? Contact us
Advertisement - Login to hide

Notes

Decoded

Route

ETSB KEF BIPA BGKK BGBW CCZ2 YYR CYYR

ID Type Via Altitude Latitude Longitude Leg Dist Tot Dist Heading (true) Name
O ETSB APT - 0 ft / 0 m 50.16397˚ 7.05471˚ - 0 nm - -
KEF VOR - 0 ft / 0 m 63.98694˚ -22.61444˚ 1255 nm 1255 nm 323° / 297° KEFLAVIK VORTAC
BIPA APT - 0 ft / 0 m 65.55916˚ -23.97908˚ 100 nm 1355 nm 340° / 339° -
BGKK APT - 0 ft / 0 m 65.57304˚ -37.13664˚ 326 nm 1682 nm 276° / 264° -
BGBW APT - 0 ft / 0 m 61.15435˚ -45.43692˚ 346 nm 2028 nm 224° / 216° -
CCZ2 APT - 0 ft / 0 m 54.17929˚ -58.46295˚ 590 nm 2618 nm 231° / 220° Rigolet
YYR VOR - 0 ft / 0 m 53.31972˚ -60.29472˚ 83 nm 2701 nm 232° / 231° GOOSE VOR-DME
O CYYR APT - 0 ft / 0 m 53.33389˚ -60.43639˚ 5 nm 2706 nm 280° / 279° -

Altitude Profile

Advertisement - Login to hide

Weather


0- 5 10 15 20 25 30 35+ Temperature / ° C

Clouds and Precipitation
Forecast for 2017-12-12 18:00 UTC. Updated an hour ago

Ground ~20,000 ft ~40,000 ft Winds

ETSB

Details ICAO ETSB
Name BUCHEL
Region Germany - Military
Timezone Europe/Berlin (UTC+1.0)
Stats Elevation 1,568 ft / 478 m (AMSL)
Location 50.173808° 7.063321°
Runways 1
Magnetic Variation 1.920° E

METAR

ETSB 121620Z 23009KT 9999 -SN SCT014 BKN023 M00/M02 Q1011 BLACKWHT WHT TEMPO YLO

Decode

TAF

Not found

Departure Runways

ID Width Length Bearing (true) Bearing (mag) Surface Threshold Offset Overrun Length
03 148 ft / 45 m 8,232 ft / 2,509 m 29.26° 27.34° Asphalt 0 ft / 0 m 902 ft / 275 m
21 148 ft / 45 m 8,232 ft / 2,509 m 209.28° 207.36° Asphalt 0 ft / 0 m 899 ft / 274 m

CYYR

Details ICAO CYYR (YYR)
Name Goose Bay
Region Canada
Timezone America/Goose_Bay (UTC-4.0)
Stats Elevation 160 ft / 49 m (AMSL)
Location 53.318820° -60.423890°
Runways 2
Magnetic Variation 20.964° W

METAR

CYYR 121600Z 25017KT 15SM DRSN FEW250 M17/M24 A3014 RMK CI2 SLP213

Decode

TAF

TAF CYYR 121130Z 1212/1312 25018KT P6SM SKC BECMG 1213/1215 25010KT FM122200 22005KT P6SM BKN200 BECMG 1300/1302 05005KT FM131100 05005KT P6SM -SN BKN030 OVC080 RMK NXT FCST BY 121800Z

Decode

Destination Runways

ID Width Length Bearing (true) Bearing (mag) Surface Threshold Offset Overrun Length
08 209 ft / 64 m 11,055 ft / 3,369 m 54.70° 75.66° Asphalt 0 ft / 0 m 1,000 ft / 305 m
16 200 ft / 61 m 9,515 ft / 2,900 m 132.96° 153.92° Asphalt 0 ft / 0 m 0 ft / 0 m
26 209 ft / 64 m 11,055 ft / 3,369 m 234.73° 255.69° Asphalt 0 ft / 0 m 1,000 ft / 305 m
34 200 ft / 61 m 9,515 ft / 2,900 m 312.99° 333.95° Asphalt 0 ft / 0 m 500 ft / 152 m

Popular Alternatives